Flight Track Log - Related Links

Times and Time Zones

All times are in EDT time to prevent confusion due to time zone crossing. See the DAL1050 flight status page for this flight to view local times or setup timezone preferences in your user account.

Time Position Orientation Groundspeed Altitude Reporting Facility
EDT Latitude Longitude Course Direction KTS MPH feet Rate Location/Type
Mon 10:06:05 PM 33.6333 -84.3833 199° South 193 222 3,300  Level Atlanta TRACON
Mon 10:07:05 PM 33.6167 -84.3000 103° East 262 302 6,600 2,538 Climbing Atlanta TRACON
Mon 10:08:00 PM 33.3672 -84.2909 194° South  Level FlightAware Approximate
Mon 10:08:41 PM 33.4914 -84.2781 172° South 294 338 9,900  Level Atlanta Center
Mon 10:09:00 PM 33.2477 -84.3258 194° South  Level FlightAware Approximate
Mon 10:09:41 PM 33.4183 -84.2878 186° South 294 338 10,200  Level Atlanta Center
Mon 10:10:00 PM 33.1280 -84.3607 194° South  Level FlightAware Approximate
Mon 10:10:41 PM 33.3264 -84.3172 195° South 319 367 12,300  Level Atlanta Center
Mon 10:11:00 PM 33.0086 -84.3932 199° South  Level FlightAware Approximate
Mon 10:11:41 PM 33.2219 -84.3467 193° South 368 423 15,700  Level Atlanta Center
Mon 10:12:41 PM 33.1153 -84.3786 194° South 395 455 18,400 2,700 Climbing Atlanta Center
Mon 10:13:41 PM 33.0025 -84.4103 193° South 407 468 21,100 2,550 Climbing Atlanta Center
Mon 10:14:41 PM 32.8794 -84.4222 185° South 435 501 23,500 2,050 Climbing Atlanta Center
Mon 10:15:41 PM 32.7583 -84.4192 179° South 448 516 25,200 1,800 Climbing Atlanta Center
Mon 10:16:41 PM 32.6247 -84.4186 180° South 460 529 27,100 1,750 Climbing Atlanta Center
Mon 10:17:41 PM 32.4892 -84.4156 179° South 480 552 28,700 1,750 Climbing Atlanta Center
Mon 10:18:41 PM 32.3492 -84.4100 178° South 492 566 30,600 1,850 Climbing Atlanta Center
Mon 10:19:41 PM 32.2114 -84.4072 179° South 492 566 32,400 1,067 Climbing Atlanta Center
Mon 10:20:56 PM 32.0197 -84.4019 179° South 513 590 33,000 265 Climbing Jacksonville Center
Mon 10:21:57 PM 31.8819 -84.3997 179° South 513 590 33,000  Level Jacksonville Center
Mon 10:22:57 PM 31.7442 -84.4000 180° South 503 579 33,000  Level Jacksonville Center
Mon 10:23:57 PM 31.6044 -84.3953 178° South 498 573 33,000  Level Jacksonville Center
Mon 10:24:57 PM 31.4667 -84.3906 178° South 498 573 33,000  Level Jacksonville Center
Mon 10:25:57 PM 31.3314 -84.3567 168° South 498 573 33,000  Level Jacksonville Center
Mon 10:26:56 PM 31.2108 -84.2967 157° South 503 579 33,000  Level Jacksonville Center
Mon 10:27:57 PM 31.0800 -84.2389 159° South 508 585 33,000  Level Jacksonville Center
Mon 10:28:57 PM 30.9489 -84.1814 159° South 508 585 33,000  Level Jacksonville Center
Mon 10:29:57 PM 30.8181 -84.1239 159° South 508 585 33,000  Level Jacksonville Center
Mon 10:30:57 PM 30.6850 -84.0667 160° South 508 585 33,000  Level Jacksonville Center
Mon 10:31:56 PM 30.5394 -84.0019 159° South 508 585 33,000  Level Jacksonville Center
Mon 10:32:56 PM 30.4208 -83.9500 159° South 508 585 33,000  Level Jacksonville Center
Mon 10:33:57 PM 30.2856 -83.8958 161° South 508 585 33,000  Level Jacksonville Center
Mon 10:34:57 PM 30.1522 -83.8392 160° South 508 585 33,000  Level Jacksonville Center
Mon 10:35:56 PM 30.0211 -83.7850 160° South 508 585 33,000  Level Jacksonville Center
Mon 10:36:57 PM 29.8733 -83.7214 160° South 508 585 33,000  Level Jacksonville Center
Mon 10:37:56 PM 29.7400 -83.6675 161° South 508 585 33,000  Level Jacksonville Center
Mon 10:38:57 PM 29.6089 -83.6117 160° South 508 585 33,000  Level Jacksonville Center
Mon 10:39:56 PM 29.4756 -83.5558 160° South 508 585 33,000  Level Jacksonville Center
Mon 10:40:56 PM 29.3464 -83.5000 159° South 508 585 33,000  Level Jacksonville Center
Mon 10:41:56 PM 29.2131 -83.4444 160° South 508 585 33,000  Level Jacksonville Center
Mon 10:42:56 PM 29.0819 -83.3939 161° South 502 578 33,000  Level Jacksonville Center
Mon 10:43:56 PM 28.9528 -83.3364 159° South 497 572 33,000 -183 Level Jacksonville Center
Mon 10:45:40 PM 28.7394 -83.2611 163° South 500 575 32,500 -655 Descending Miami Center
Mon 10:46:41 PM 28.6081 -83.2156 163° South 500 575 31,200 -1,714 Descending Miami Center
Mon 10:47:39 PM 28.4747 -83.1678 163° South 500 575 29,100 -1,835 Descending Miami Center
Mon 10:48:42 PM 28.3456 -83.1158 161° South 495 570 27,500 -1,041 Descending Miami Center
Mon 10:49:40 PM 28.2122 -83.0708 163° South 495 570 27,000 -250 Descending Miami Center
Mon 10:50:42 PM 28.0828 -83.0236 162° South 489 563 27,000  Level Miami Center
Mon 10:51:39 PM 27.9558 -82.9675 159° South 489 563 27,000  Level Miami Center
Mon 10:52:42 PM 27.8289 -82.9089 158° South 494 568 27,000  Level Miami Center
Mon 10:53:40 PM 27.6878 -82.8431 158° South 501 577 27,000 -101 Level Miami Center
Mon 10:54:41 PM 27.5586 -82.7869 159° South 501 577 26,800 -1,339 Descending Miami Center
Mon 10:55:41 PM 27.4442 -82.7342 158° South 492 566 24,300 -1,513 Descending Miami Center
Mon 10:56:40 PM 27.3189 -82.6789 159° South 487 560 23,800 -2,339 Descending Miami Center
Mon 10:57:39 PM 27.1969 -82.6003 150° Southeast 477 549 19,700 -3,639 Descending Miami Center
Mon 10:58:42 PM 27.0978 -82.5233 145° Southeast 454 522 16,400 -2,705 Descending Miami Center
Mon 10:59:41 PM 27.0025 -82.4511 146° Southeast 434 499 14,200 -2,237 Descending Miami Center
Mon 11:00:40 PM 26.9156 -82.3792 144° Southeast 414 476 12,000 -1,983 Descending Miami Center
Mon 11:01:39 PM 26.8325 -82.3125 144° Southeast 387 445 10,300 -1,210 Descending Miami Center
Mon 11:02:39 PM 26.7575 -82.2533 145° Southeast 361 415 9,600 -878 Descending Miami Center
Mon 11:03:42 PM 26.6906 -82.2014 145° Southeast 324 373 8,500 -1,512 Descending Miami Center
Mon 11:04:42 PM 26.6278 -82.1453 141° Southeast 296 341 6,500 -2,186 Descending Miami Center
Mon 11:05:40 PM 26.5647 -82.0983 146° Southeast 281 323 4,200 -1,576 Descending Miami Center
Mon 11:06:40 PM 26.5192 -82.0336 128° Southeast 274 315 3,400 -639 Descending Miami Center
Mon 11:07:42 PM 26.4753 -81.9736 129° Southeast 260 299 2,900 -484 Descending Miami Center

Login

Don't have an account? Register now (free) for customized features, flight alerts, and more!